sensor_id;sensor_type;location;lat;lon;timestamp;P1;durP1;ratioP1;P2;durP2;ratioP2
60078;SDS011;45951;45.824;8.824;2023-02-26T00:01:25;6.43;;;2.38;;
60078;SDS011;45951;45.824;8.824;2023-02-26T00:07:27;5.38;;;2.20;;
60078;SDS011;45951;45.824;8.824;2023-02-26T00:13:28;7.32;;;2.42;;
60078;SDS011;45951;45.824;8.824;2023-02-26T00:19:29;8.65;;;1.98;;
60078;SDS011;45951;45.824;8.824;2023-02-26T00:25:29;3.80;;;1.87;;
60078;SDS011;45951;45.824;8.824;2023-02-26T00:31:30;2.03;;;1.40;;
60078;SDS011;45951;45.824;8.824;2023-02-26T00:38:12;2.20;;;1.15;;
60078;SDS011;45951;45.824;8.824;2023-02-26T00:43:56;5.18;;;1.30;;
60078;SDS011;45951;45.824;8.824;2023-02-26T00:56:13;1.80;;;1.20;;
60078;SDS011;45951;45.824;8.824;2023-02-26T01:02:13;2.08;;;1.40;;
60078;SDS011;45951;45.824;8.824;2023-02-26T01:14:33;2.10;;;1.30;;
60078;SDS011;45951;45.824;8.824;2023-02-26T01:20:53;2.97;;;1.23;;
60078;SDS011;45951;45.824;8.824;2023-02-26T01:26:56;1.13;;;0.88;;
60078;SDS011;45951;45.824;8.824;2023-02-26T01:33:10;1.50;;;0.75;;
60078;SDS011;45951;45.824;8.824;2023-02-26T01:39:37;1.55;;;1.05;;
60078;SDS011;45951;45.824;8.824;2023-02-26T01:45:50;1.45;;;1.02;;
60078;SDS011;45951;45.824;8.824;2023-02-26T01:58:07;1.50;;;0.98;;
60078;SDS011;45951;45.824;8.824;2023-02-26T02:04:10;1.53;;;1.00;;
60078;SDS011;45951;45.824;8.824;2023-02-26T02:10:12;0.77;;;0.75;;
60078;SDS011;45951;45.824;8.824;2023-02-26T02:16:18;0.60;;;0.60;;
60078;SDS011;45951;45.824;8.824;2023-02-26T02:35:37;0.73;;;0.60;;
60078;SDS011;45951;45.824;8.824;2023-02-26T02:41:43;1.83;;;0.68;;
60078;SDS011;45951;45.824;8.824;2023-02-26T02:47:47;1.58;;;0.60;;
60078;SDS011;45951;45.824;8.824;2023-02-26T02:53:54;1.93;;;0.87;;
60078;SDS011;45951;45.824;8.824;2023-02-26T03:06:00;0.70;;;0.70;;
60078;SDS011;45951;45.824;8.824;2023-02-26T03:12:00;0.80;;;0.80;;
60078;SDS011;45951;45.824;8.824;2023-02-26T03:24:33;0.57;;;0.57;;
60078;SDS011;45951;45.824;8.824;2023-02-26T03:30:41;1.10;;;0.73;;
60078;SDS011;45951;45.824;8.824;2023-02-26T03:36:47;1.67;;;0.90;;
60078;SDS011;45951;45.824;8.824;2023-02-26T03:49:19;0.65;;;0.45;;
60078;SDS011;45951;45.824;8.824;2023-02-26T03:55:28;1.02;;;0.80;;
60078;SDS011;45951;45.824;8.824;2023-02-26T04:01:34;0.80;;;0.80;;
60078;SDS011;45951;45.824;8.824;2023-02-26T04:07:38;4.47;;;0.77;;
60078;SDS011;45951;45.824;8.824;2023-02-26T04:13:39;0.55;;;0.55;;
60078;SDS011;45951;45.824;8.824;2023-02-26T04:19:39;2.20;;;0.50;;
60078;SDS011;45951;45.824;8.824;2023-02-26T04:25:39;0.82;;;0.70;;
60078;SDS011;45951;45.824;8.824;2023-02-26T04:31:40;0.60;;;0.60;;
60078;SDS011;45951;45.824;8.824;2023-02-26T04:37:40;0.50;;;0.50;;
60078;SDS011;45951;45.824;8.824;2023-02-26T04:43:40;0.85;;;0.65;;
60078;SDS011;45951;45.824;8.824;2023-02-26T04:49:41;1.10;;;0.60;;
60078;SDS011;45951;45.824;8.824;2023-02-26T04:55:41;0.55;;;0.55;;
60078;SDS011;45951;45.824;8.824;2023-02-26T05:01:42;1.08;;;0.70;;
60078;SDS011;45951;45.824;8.824;2023-02-26T05:07:42;0.60;;;0.60;;
60078;SDS011;45951;45.824;8.824;2023-02-26T05:13:42;0.63;;;0.60;;
60078;SDS011;45951;45.824;8.824;2023-02-26T05:19:43;2.10;;;0.80;;
60078;SDS011;45951;45.824;8.824;2023-02-26T05:25:43;0.85;;;0.65;;
60078;SDS011;45951;45.824;8.824;2023-02-26T05:31:43;0.60;;;0.60;;
60078;SDS011;45951;45.824;8.824;2023-02-26T05:37:44;1.10;;;0.65;;
60078;SDS011;45951;45.824;8.824;2023-02-26T05:43:44;1.05;;;0.95;;
60078;SDS011;45951;45.824;8.824;2023-02-26T05:49:44;0.70;;;0.70;;
60078;SDS011;45951;45.824;8.824;2023-02-26T05:55:45;0.88;;;0.73;;
60078;SDS011;45951;45.824;8.824;2023-02-26T06:01:45;2.40;;;0.83;;
60078;SDS011;45951;45.824;8.824;2023-02-26T06:07:45;1.13;;;0.95;;
60078;SDS011;45951;45.824;8.824;2023-02-26T06:13:46;1.83;;;0.75;;
60078;SDS011;45951;45.824;8.824;2023-02-26T06:19:46;1.10;;;0.87;;
60078;SDS011;45951;45.824;8.824;2023-02-26T06:25:46;1.00;;;0.95;;
60078;SDS011;45951;45.824;8.824;2023-02-26T06:31:50;1.05;;;0.82;;
60078;SDS011;45951;45.824;8.824;2023-02-26T06:37:50;0.60;;;0.60;;
60078;SDS011;45951;45.824;8.824;2023-02-26T06:43:50;0.70;;;0.65;;
60078;SDS011;45951;45.824;8.824;2023-02-26T06:49:51;1.10;;;1.00;;
60078;SDS011;45951;45.824;8.824;2023-02-26T06:55:52;3.70;;;1.17;;
60078;SDS011;45951;45.824;8.824;2023-02-26T07:08:22;1.27;;;0.85;;
60078;SDS011;45951;45.824;8.824;2023-02-26T07:14:23;0.77;;;0.68;;
60078;SDS011;45951;45.824;8.824;2023-02-26T07:20:23;4.70;;;2.33;;
60078;SDS011;45951;45.824;8.824;2023-02-26T07:26:23;6.85;;;3.90;;
60078;SDS011;45951;45.824;8.824;2023-02-26T07:32:24;10.90;;;4.00;;
60078;SDS011;45951;45.824;8.824;2023-02-26T07:38:24;5.15;;;2.53;;
60078;SDS011;45951;45.824;8.824;2023-02-26T07:44:25;4.70;;;2.42;;
60078;SDS011;45951;45.824;8.824;2023-02-26T07:50:25;3.08;;;1.30;;
60078;SDS011;45951;45.824;8.824;2023-02-26T07:56:26;3.33;;;1.77;;
60078;SDS011;45951;45.824;8.824;2023-02-26T08:02:26;6.68;;;1.77;;
60078;SDS011;45951;45.824;8.824;2023-02-26T08:08:27;2.10;;;1.43;;
60078;SDS011;45951;45.824;8.824;2023-02-26T08:14:28;2.10;;;1.50;;
60078;SDS011;45951;45.824;8.824;2023-02-26T08:20:28;2.30;;;1.10;;
60078;SDS011;45951;45.824;8.824;2023-02-26T08:26:28;1.42;;;1.30;;
60078;SDS011;45951;45.824;8.824;2023-02-26T08:32:29;1.27;;;1.10;;
60078;SDS011;45951;45.824;8.824;2023-02-26T08:38:29;3.60;;;2.38;;
60078;SDS011;45951;45.824;8.824;2023-02-26T08:44:30;2.33;;;1.63;;
60078;SDS011;45951;45.824;8.824;2023-02-26T08:50:31;2.28;;;1.27;;
60078;SDS011;45951;45.824;8.824;2023-02-26T08:56:32;2.80;;;1.45;;
60078;SDS011;45951;45.824;8.824;2023-02-26T09:02:32;2.60;;;1.45;;
60078;SDS011;45951;45.824;8.824;2023-02-26T09:08:33;2.63;;;1.80;;
60078;SDS011;45951;45.824;8.824;2023-02-26T09:14:33;2.53;;;1.55;;
60078;SDS011;45951;45.824;8.824;2023-02-26T09:20:33;2.72;;;1.50;;
60078;SDS011;45951;45.824;8.824;2023-02-26T09:26:34;2.63;;;1.40;;
60078;SDS011;45951;45.824;8.824;2023-02-26T09:32:34;2.23;;;1.60;;
60078;SDS011;45951;45.824;8.824;2023-02-26T09:38:35;1.13;;;1.03;;
60078;SDS011;45951;45.824;8.824;2023-02-26T09:44:35;3.33;;;1.88;;
60078;SDS011;45951;45.824;8.824;2023-02-26T09:50:38;0.88;;;0.73;;
60078;SDS011;45951;45.824;8.824;2023-02-26T09:56:41;2.35;;;1.20;;
60078;SDS011;45951;45.824;8.824;2023-02-26T10:02:50;1.92;;;1.15;;
60078;SDS011;45951;45.824;8.824;2023-02-26T10:15:19;3.22;;;1.65;;
60078;SDS011;45951;45.824;8.824;2023-02-26T10:21:24;2.55;;;1.63;;
60078;SDS011;45951;45.824;8.824;2023-02-26T10:40:11;2.50;;;1.83;;
60078;SDS011;45951;45.824;8.824;2023-02-26T10:47:14;2.92;;;1.80;;
60078;SDS011;45951;45.824;8.824;2023-02-26T10:53:08;1.60;;;1.33;;
60078;SDS011;45951;45.824;8.824;2023-02-26T10:59:10;3.88;;;1.95;;
60078;SDS011;45951;45.824;8.824;2023-02-26T11:05:16;2.43;;;1.73;;
60078;SDS011;45951;45.824;8.824;2023-02-26T11:11:38;3.90;;;1.80;;
60078;SDS011;45951;45.824;8.824;2023-02-26T11:17:52;3.30;;;2.08;;
60078;SDS011;45951;45.824;8.824;2023-02-26T11:23:55;1.88;;;1.45;;
60078;SDS011;45951;45.824;8.824;2023-02-26T11:30:14;1.98;;;1.35;;
60078;SDS011;45951;45.824;8.824;2023-02-26T11:36:22;2.42;;;1.10;;
60078;SDS011;45951;45.824;8.824;2023-02-26T11:42:25;5.35;;;2.20;;
60078;SDS011;45951;45.824;8.824;2023-02-26T11:48:38;2.10;;;1.65;;
60078;SDS011;45951;45.824;8.824;2023-02-26T11:54:43;3.70;;;1.95;;
60078;SDS011;45951;45.824;8.824;2023-02-26T12:00:44;5.03;;;2.00;;
60078;SDS011;45951;45.824;8.824;2023-02-26T12:06:46;3.42;;;1.42;;
60078;SDS011;45951;45.824;8.824;2023-02-26T12:13:00;1.92;;;1.13;;
60078;SDS011;45951;45.824;8.824;2023-02-26T12:57:00;1.08;;;0.85;;
60078;SDS011;45951;45.824;8.824;2023-02-26T13:03:29;2.08;;;1.20;;
60078;SDS011;45951;45.824;8.824;2023-02-26T13:09:44;1.25;;;0.93;;
60078;SDS011;45951;45.824;8.824;2023-02-26T13:16:10;1.48;;;1.05;;
60078;SDS011;45951;45.824;8.824;2023-02-26T13:22:20;2.03;;;1.17;;
60078;SDS011;45951;45.824;8.824;2023-02-26T13:41:11;0.90;;;0.80;;
60078;SDS011;45951;45.824;8.824;2023-02-26T14:18:17;3.35;;;2.13;;
60078;SDS011;45951;45.824;8.824;2023-02-26T14:24:38;5.95;;;3.10;;
60078;SDS011;45951;45.824;8.824;2023-02-26T14:30:48;2.33;;;1.73;;
60078;SDS011;45951;45.824;8.824;2023-02-26T14:36:57;3.08;;;1.92;;
60078;SDS011;45951;45.824;8.824;2023-02-26T14:43:00;2.40;;;1.40;;
60078;SDS011;45951;45.824;8.824;2023-02-26T14:49:02;2.33;;;1.40;;
60078;SDS011;45951;45.824;8.824;2023-02-26T15:32:23;3.28;;;2.33;;
60078;SDS011;45951;45.824;8.824;2023-02-26T15:38:25;4.38;;;2.58;;
60078;SDS011;45951;45.824;8.824;2023-02-26T15:44:28;3.72;;;2.35;;
60078;SDS011;45951;45.824;8.824;2023-02-26T15:50:30;6.18;;;3.42;;
60078;SDS011;45951;45.824;8.824;2023-02-26T15:56:34;4.65;;;3.05;;
60078;SDS011;45951;45.824;8.824;2023-02-26T16:02:35;7.70;;;3.67;;
60078;SDS011;45951;45.824;8.824;2023-02-26T16:08:36;5.32;;;3.28;;
60078;SDS011;45951;45.824;8.824;2023-02-26T16:14:38;4.75;;;2.50;;
60078;SDS011;45951;45.824;8.824;2023-02-26T16:20:42;6.35;;;3.83;;
60078;SDS011;45951;45.824;8.824;2023-02-26T16:26:46;4.47;;;2.67;;
60078;SDS011;45951;45.824;8.824;2023-02-26T16:32:50;5.68;;;3.08;;
60078;SDS011;45951;45.824;8.824;2023-02-26T16:45:14;4.05;;;2.67;;
60078;SDS011;45951;45.824;8.824;2023-02-26T16:51:19;6.55;;;2.97;;
60078;SDS011;45951;45.824;8.824;2023-02-26T16:57:23;4.88;;;3.00;;
60078;SDS011;45951;45.824;8.824;2023-02-26T17:03:34;6.63;;;3.90;;
60078;SDS011;45951;45.824;8.824;2023-02-26T17:09:35;5.82;;;3.13;;
60078;SDS011;45951;45.824;8.824;2023-02-26T17:15:37;6.28;;;3.95;;
60078;SDS011;45951;45.824;8.824;2023-02-26T17:21:56;8.80;;;3.83;;
60078;SDS011;45951;45.824;8.824;2023-02-26T17:27:57;3.45;;;2.40;;
60078;SDS011;45951;45.824;8.824;2023-02-26T17:33:58;6.13;;;2.70;;
60078;SDS011;45951;45.824;8.824;2023-02-26T17:39:58;4.00;;;2.40;;
60078;SDS011;45951;45.824;8.824;2023-02-26T17:45:59;4.45;;;2.45;;
60078;SDS011;45951;45.824;8.824;2023-02-26T17:51:59;3.80;;;2.65;;
60078;SDS011;45951;45.824;8.824;2023-02-26T17:57:59;5.03;;;2.63;;
60078;SDS011;45951;45.824;8.824;2023-02-26T18:04:00;3.23;;;2.33;;
60078;SDS011;45951;45.824;8.824;2023-02-26T18:10:02;2.65;;;1.90;;
60078;SDS011;45951;45.824;8.824;2023-02-26T18:16:03;4.72;;;3.00;;
60078;SDS011;45951;45.824;8.824;2023-02-26T18:22:07;4.95;;;3.10;;
60078;SDS011;45951;45.824;8.824;2023-02-26T18:28:22;5.43;;;3.30;;
60078;SDS011;45951;45.824;8.824;2023-02-26T18:34:25;5.60;;;3.53;;
60078;SDS011;45951;45.824;8.824;2023-02-26T18:40:25;5.03;;;3.13;;
60078;SDS011;45951;45.824;8.824;2023-02-26T18:46:27;6.05;;;3.92;;
60078;SDS011;45951;45.824;8.824;2023-02-26T18:52:28;5.93;;;3.85;;
60078;SDS011;45951;45.824;8.824;2023-02-26T18:58:29;5.80;;;3.85;;
60078;SDS011;45951;45.824;8.824;2023-02-26T19:04:29;6.30;;;4.57;;
60078;SDS011;45951;45.824;8.824;2023-02-26T19:10:29;6.80;;;4.55;;
60078;SDS011;45951;45.824;8.824;2023-02-26T19:16:30;6.45;;;4.40;;
60078;SDS011;45951;45.824;8.824;2023-02-26T19:22:34;7.90;;;4.70;;
60078;SDS011;45951;45.824;8.824;2023-02-26T19:28:34;6.22;;;3.88;;
60078;SDS011;45951;45.824;8.824;2023-02-26T19:34:35;6.95;;;4.80;;
60078;SDS011;45951;45.824;8.824;2023-02-26T19:40:35;4.18;;;2.72;;
60078;SDS011;45951;45.824;8.824;2023-02-26T19:46:35;6.78;;;4.57;;
60078;SDS011;45951;45.824;8.824;2023-02-26T19:52:36;6.63;;;4.50;;
60078;SDS011;45951;45.824;8.824;2023-02-26T19:58:36;8.25;;;4.60;;
60078;SDS011;45951;45.824;8.824;2023-02-26T20:04:37;7.50;;;4.63;;
60078;SDS011;45951;45.824;8.824;2023-02-26T20:10:37;5.28;;;3.70;;
60078;SDS011;45951;45.824;8.824;2023-02-26T20:16:38;4.53;;;3.00;;
60078;SDS011;45951;45.824;8.824;2023-02-26T20:22:38;7.10;;;3.58;;
60078;SDS011;45951;45.824;8.824;2023-02-26T20:28:39;6.30;;;4.03;;
60078;SDS011;45951;45.824;8.824;2023-02-26T20:34:39;5.20;;;3.53;;
60078;SDS011;45951;45.824;8.824;2023-02-26T20:40:39;6.18;;;3.80;;
60078;SDS011;45951;45.824;8.824;2023-02-26T20:46:40;5.00;;;3.50;;
60078;SDS011;45951;45.824;8.824;2023-02-26T20:52:40;6.03;;;4.00;;
60078;SDS011;45951;45.824;8.824;2023-02-26T20:58:41;5.70;;;4.20;;
60078;SDS011;45951;45.824;8.824;2023-02-26T21:04:41;6.35;;;3.90;;
60078;SDS011;45951;45.824;8.824;2023-02-26T21:10:41;5.90;;;3.80;;
60078;SDS011;45951;45.824;8.824;2023-02-26T21:16:42;5.90;;;3.70;;
60078;SDS011;45951;45.824;8.824;2023-02-26T21:22:43;6.28;;;4.22;;
60078;SDS011;45951;45.824;8.824;2023-02-26T21:28:44;5.78;;;3.50;;
60078;SDS011;45951;45.824;8.824;2023-02-26T21:34:47;7.03;;;3.95;;
60078;SDS011;45951;45.824;8.824;2023-02-26T21:40:47;6.20;;;4.32;;
60078;SDS011;45951;45.824;8.824;2023-02-26T21:46:48;6.75;;;4.25;;
60078;SDS011;45951;45.824;8.824;2023-02-26T21:52:48;6.00;;;4.20;;
60078;SDS011;45951;45.824;8.824;2023-02-26T21:58:49;5.80;;;4.13;;
60078;SDS011;45951;45.824;8.824;2023-02-26T22:04:49;5.88;;;4.25;;
60078;SDS011;45951;45.824;8.824;2023-02-26T22:10:50;6.28;;;4.50;;
60078;SDS011;45951;45.824;8.824;2023-02-26T22:16:50;7.43;;;4.50;;
60078;SDS011;45951;45.824;8.824;2023-02-26T22:22:50;5.93;;;4.65;;
60078;SDS011;45951;45.824;8.824;2023-02-26T22:28:51;6.75;;;4.53;;
60078;SDS011;45951;45.824;8.824;2023-02-26T22:34:51;7.18;;;4.80;;
60078;SDS011;45951;45.824;8.824;2023-02-26T22:40:51;7.50;;;5.50;;
60078;SDS011;45951;45.824;8.824;2023-02-26T22:46:52;7.38;;;5.65;;
60078;SDS011;45951;45.824;8.824;2023-02-26T22:52:52;7.55;;;5.60;;
60078;SDS011;45951;45.824;8.824;2023-02-26T22:58:53;8.02;;;5.47;;
60078;SDS011;45951;45.824;8.824;2023-02-26T23:04:53;4.97;;;3.63;;
60078;SDS011;45951;45.824;8.824;2023-02-26T23:10:57;6.97;;;4.18;;
60078;SDS011;45951;45.824;8.824;2023-02-26T23:16:58;4.68;;;3.08;;
60078;SDS011;45951;45.824;8.824;2023-02-26T23:22:59;5.38;;;3.20;;
60078;SDS011;45951;45.824;8.824;2023-02-26T23:28:59;5.75;;;3.00;;
60078;SDS011;45951;45.824;8.824;2023-02-26T23:35:00;5.97;;;3.25;;
60078;SDS011;45951;45.824;8.824;2023-02-26T23:41:00;6.03;;;3.07;;
60078;SDS011;45951;45.824;8.824;2023-02-26T23:47:01;4.47;;;2.65;;
60078;SDS011;45951;45.824;8.824;2023-02-26T23:53:01;5.30;;;3.60;;
60078;SDS011;45951;45.824;8.824;2023-02-26T23:59:01;3.78;;;2.67;;
